createdAt,value
2022-09-16T00:01:18.069Z,10.05
2022-09-16T00:03:47.522Z,10.55
2022-09-16T00:06:21.353Z,12.02
2022-09-16T00:08:50.622Z,12.10
2022-09-16T00:11:19.553Z,11.57
2022-09-16T00:13:47.413Z,12.20
2022-09-16T00:16:24.971Z,10.70
2022-09-16T00:19:01.107Z,10.85
2022-09-16T00:21:30.709Z,12.37
2022-09-16T00:23:58.988Z,12.20
2022-09-16T00:26:26.815Z,13.23
2022-09-16T00:28:55.065Z,12.70
2022-09-16T00:31:23.092Z,14.10
2022-09-16T00:33:51.201Z,13.90
2022-09-16T00:36:20.723Z,13.10
2022-09-16T00:38:55.335Z,13.73
2022-09-16T00:41:26.905Z,12.37
2022-09-16T00:44:06.686Z,11.65
2022-09-16T00:46:45.798Z,9.98
2022-09-16T00:49:27.437Z,10.10
2022-09-16T00:52:02.331Z,10.60
2022-09-16T00:57:17.704Z,11.05
2022-09-16T00:59:50.081Z,11.60
2022-09-16T01:02:20.707Z,13.57
2022-09-16T01:05:01.087Z,10.65
2022-09-16T01:07:37.436Z,12.10
2022-09-16T01:10:05.465Z,11.75
2022-09-16T01:12:35.244Z,11.35
2022-09-16T01:15:04.752Z,10.85
2022-09-16T01:17:49.014Z,10.73
2022-09-16T01:20:30.031Z,10.68
2022-09-16T01:23:16.516Z,10.00
2022-09-16T01:26:20.422Z,8.93
2022-09-16T01:29:18.904Z,10.48
2022-09-16T01:32:05.763Z,11.27
2022-09-16T01:34:42.660Z,10.25
2022-09-16T01:37:29.402Z,10.32
2022-09-16T01:40:20.242Z,9.23
2022-09-16T01:43:19.374Z,10.50
2022-09-16T01:45:52.553Z,10.55
2022-09-16T01:48:40.057Z,9.85
2022-09-16T01:51:33.265Z,10.95
2022-09-16T01:54:24.673Z,13.05
2022-09-16T01:57:14.178Z,11.80
2022-09-16T01:59:49.204Z,12.40
2022-09-16T02:02:22.416Z,10.27
2022-09-16T02:04:56.679Z,11.38
2022-09-16T02:07:31.421Z,9.27
2022-09-16T02:10:08.883Z,10.75
2022-09-16T02:12:42.963Z,8.63
2022-09-16T02:15:19.043Z,7.60
2022-09-16T02:17:53.202Z,10.65
2022-09-16T02:20:26.354Z,10.63
2022-09-16T02:23:04.852Z,9.60
2022-09-16T02:25:38.228Z,9.07
2022-09-16T02:33:13.968Z,6.57
2022-09-16T02:35:45.010Z,8.10
2022-09-16T02:38:26.399Z,11.93
2022-09-16T02:41:01.512Z,10.43
2022-09-16T02:43:29.972Z,8.10
2022-09-16T02:46:04.416Z,11.27
2022-09-16T02:49:26.559Z,8.25
2022-09-16T02:51:54.864Z,8.82
2022-09-16T02:54:49.367Z,10.77
2022-09-16T02:57:17.794Z,9.68
2022-09-16T02:59:45.927Z,10.43
2022-09-16T03:02:14.150Z,10.20
2022-09-16T03:04:42.305Z,11.15
2022-09-16T03:07:12.164Z,10.00
2022-09-16T03:09:45.914Z,12.20
2022-09-16T03:12:45.407Z,9.85
2022-09-16T03:15:33.037Z,11.40
2022-09-16T03:18:28.691Z,9.82
2022-09-16T03:21:37.323Z,12.45
2022-09-16T03:24:18.541Z,7.45
2022-09-16T03:27:14.547Z,7.82
2022-09-16T03:29:58.006Z,11.02
2022-09-16T03:32:32.336Z,6.87
2022-09-16T03:35:20.431Z,7.03
2022-09-16T03:37:49.250Z,8.95
2022-09-16T03:40:19.875Z,9.05
2022-09-16T03:42:48.136Z,12.30
2022-09-16T03:45:22.655Z,12.37
2022-09-16T03:47:52.898Z,9.10
2022-09-16T03:50:21.558Z,8.38
2022-09-16T03:52:49.355Z,8.48
2022-09-16T03:55:17.672Z,7.72
2022-09-16T03:57:45.593Z,8.20
2022-09-16T04:00:16.243Z,8.65
2022-09-16T04:02:44.501Z,7.45
2022-09-16T04:05:12.489Z,6.35
2022-09-16T04:07:40.293Z,8.50
2022-09-16T04:10:08.633Z,9.63
2022-09-16T04:12:36.325Z,8.48
2022-09-16T04:15:04.505Z,6.15
2022-09-16T04:17:33.386Z,8.90
2022-09-16T04:20:01.514Z,7.43
2022-09-16T04:22:31.824Z,6.95
2022-09-16T04:24:59.970Z,9.77
2022-09-16T04:27:27.909Z,7.60
2022-09-16T04:29:56.289Z,9.93
2022-09-16T04:32:38.904Z,10.20
2022-09-16T04:35:38.155Z,10.20
2022-09-16T04:38:16.960Z,11.32
2022-09-16T04:40:45.091Z,11.20
2022-09-16T04:43:14.161Z,12.60
2022-09-16T04:45:41.912Z,11.93
2022-09-16T04:48:12.439Z,13.93
2022-09-16T04:50:40.517Z,12.18
2022-09-16T04:53:08.250Z,9.10
2022-09-16T04:55:35.972Z,9.85
2022-09-16T04:58:05.083Z,12.45
2022-09-16T05:00:33.157Z,12.57
2022-09-16T05:03:03.526Z,9.48
2022-09-16T05:05:31.736Z,8.77
2022-09-16T05:07:59.482Z,9.80
2022-09-16T05:10:28.895Z,9.60
2022-09-16T05:12:57.013Z,8.00
2022-09-16T05:15:24.787Z,8.30
2022-09-16T05:17:52.452Z,10.38
2022-09-16T05:20:20.709Z,10.25
2022-09-16T05:22:51.458Z,8.15
2022-09-16T06:12:00.768Z,5.28
2022-09-16T06:14:29.059Z,5.75
2022-09-16T06:16:56.888Z,5.18
2022-09-16T06:19:24.529Z,7.62
2022-09-16T06:21:52.583Z,7.03
2022-09-16T06:24:22.028Z,8.43
2022-09-16T06:26:49.957Z,6.80
2022-09-16T06:29:18.378Z,7.80
2022-09-16T06:31:46.128Z,7.18
2022-09-16T06:34:16.265Z,5.28
2022-09-16T06:36:45.577Z,6.68
2022-09-16T06:39:15.809Z,5.90
2022-09-16T06:41:44.448Z,5.35
2022-09-16T06:44:12.185Z,5.80
2022-09-16T06:46:39.970Z,7.30
2022-09-16T06:49:08.318Z,6.12
2022-09-16T06:51:36.563Z,6.65
2022-09-16T06:54:09.227Z,5.90
2022-09-16T06:59:07.757Z,5.12
2022-09-16T07:01:35.477Z,4.70
2022-09-16T07:04:06.566Z,4.40
2022-09-16T07:09:23.962Z,6.60
2022-09-16T07:11:51.882Z,4.87
2022-09-16T07:14:19.758Z,5.72
2022-09-16T07:16:48.392Z,4.93
2022-09-16T07:19:16.146Z,4.00
2022-09-16T07:21:44.100Z,5.22
2022-09-16T07:24:14.173Z,5.32
2022-09-16T07:26:43.361Z,6.10
2022-09-16T07:29:16.556Z,5.32
2022-09-16T07:31:44.808Z,5.30
2022-09-16T07:34:14.164Z,7.40
2022-09-16T07:36:47.769Z,7.15
2022-09-16T07:39:18.436Z,6.57
2022-09-16T07:41:48.870Z,4.72
2022-09-16T07:44:20.750Z,5.53
2022-09-16T07:46:48.766Z,5.65
2022-09-16T07:49:17.971Z,6.47
2022-09-16T07:51:46.407Z,5.95
2022-09-16T07:54:16.974Z,4.32
2022-09-16T07:56:54.162Z,6.90
2022-09-16T07:59:22.351Z,6.20
2022-09-16T08:01:50.936Z,5.10
2022-09-16T08:04:20.639Z,5.72
2022-09-16T08:06:48.950Z,6.07
2022-09-16T08:12:08.268Z,5.60
2022-09-16T08:14:36.299Z,6.18
2022-09-16T08:17:04.446Z,6.97
2022-09-16T08:19:44.560Z,6.75
2022-09-16T08:22:12.238Z,5.03
2022-09-16T08:24:40.981Z,5.03
2022-09-16T08:27:09.372Z,3.80
2022-09-16T08:29:37.246Z,6.25
2022-09-16T08:32:05.433Z,7.20
2022-09-16T08:34:33.210Z,7.12
2022-09-16T08:39:49.003Z,6.20
2022-09-16T08:42:31.938Z,7.05
2022-09-16T08:45:29.091Z,6.53
2022-09-16T08:48:28.973Z,6.40
2022-09-16T08:50:59.223Z,3.58
2022-09-16T08:53:29.773Z,7.22
2022-09-16T08:56:00.083Z,5.80
2022-09-16T08:58:42.510Z,6.75
2022-09-16T09:01:41.885Z,7.10
2022-09-16T09:04:09.803Z,5.87
2022-09-16T09:07:06.649Z,3.20
2022-09-16T09:09:34.667Z,3.10
2022-09-16T09:12:21.977Z,2.78
2022-09-16T09:15:12.221Z,2.78
2022-09-16T09:18:18.297Z,2.87
2022-09-16T09:21:07.847Z,3.30
2022-09-16T09:23:54.114Z,3.65
2022-09-16T09:26:40.683Z,3.20
2022-09-16T09:29:30.265Z,2.65
2022-09-16T09:32:00.513Z,1.65
2022-09-16T09:35:12.988Z,2.72
2022-09-16T09:37:55.553Z,1.87
2022-09-16T09:43:14.944Z,2.00
2022-09-16T09:46:05.682Z,2.60
2022-09-16T09:49:22.355Z,2.15
2022-09-16T09:51:57.373Z,2.97
2022-09-16T09:57:41.052Z,2.00
2022-09-16T10:00:18.289Z,2.72
2022-09-16T10:02:49.746Z,3.20
2022-09-16T10:05:29.419Z,3.00
2022-09-16T10:08:16.418Z,2.47
2022-09-16T10:10:59.970Z,2.30
2022-09-16T10:13:32.792Z,2.95
2022-09-16T10:16:13.472Z,2.60
2022-09-16T10:18:41.579Z,2.95
2022-09-16T10:21:18.177Z,2.42
2022-09-16T10:23:57.691Z,3.10
2022-09-16T10:26:27.584Z,2.90
2022-09-16T10:29:02.505Z,3.45
2022-09-16T10:31:36.566Z,2.87
2022-09-16T10:34:14.963Z,2.80
2022-09-16T10:36:42.783Z,3.40
2022-09-16T10:39:24.279Z,3.17
2022-09-16T10:41:51.948Z,2.70
2022-09-16T10:44:29.475Z,2.67
2022-09-16T10:47:10.541Z,2.85
2022-09-16T10:49:45.232Z,2.78
2022-09-16T10:52:26.631Z,2.58
2022-09-16T10:54:55.628Z,2.80
2022-09-16T10:57:25.322Z,3.35
2022-09-16T11:00:15.123Z,3.60
2022-09-16T11:03:15.564Z,2.92
2022-09-16T11:06:29.579Z,3.28
2022-09-16T11:09:12.862Z,3.42
2022-09-16T11:14:47.888Z,3.78
2022-09-16T11:17:32.378Z,3.17
2022-09-16T11:20:21.698Z,3.25
2022-09-16T11:23:27.033Z,2.65
2022-09-16T11:26:00.346Z,3.15
2022-09-16T11:31:22.210Z,2.72
2022-09-16T11:33:49.864Z,2.87
2022-09-16T11:36:32.363Z,2.90
2022-09-16T11:39:27.430Z,3.65
2022-09-16T11:42:02.326Z,3.78
2022-09-16T11:44:41.757Z,4.40
2022-09-16T11:47:40.949Z,2.87
2022-09-16T11:50:32.093Z,2.65
2022-09-16T11:53:13.046Z,3.45
2022-09-16T11:56:04.034Z,2.80
2022-09-16T11:58:45.671Z,2.80
2022-09-16T12:01:42.354Z,3.37
2022-09-16T12:04:32.713Z,3.03
2022-09-16T12:07:11.909Z,2.92
2022-09-16T12:09:42.520Z,3.12
2022-09-16T12:12:14.855Z,3.12
2022-09-16T12:17:25.949Z,2.95
2022-09-16T12:20:19.657Z,3.30
2022-09-16T12:23:04.669Z,3.30
2022-09-16T12:25:47.187Z,3.35
2022-09-16T12:28:27.879Z,2.90
2022-09-16T12:31:34.149Z,2.85
2022-09-16T12:34:22.572Z,2.53
2022-09-16T12:37:15.484Z,2.65
2022-09-16T12:39:43.315Z,2.62
2022-09-16T12:42:49.796Z,3.05
2022-09-16T12:45:57.549Z,2.90
2022-09-16T12:48:47.035Z,2.70
2022-09-16T12:51:41.397Z,3.00
2022-09-16T12:54:40.888Z,2.53
2022-09-16T12:57:57.778Z,2.87
2022-09-16T13:00:37.435Z,2.40
2022-09-16T13:03:18.361Z,2.90
2022-09-16T13:05:49.328Z,2.53
2022-09-16T13:08:33.072Z,2.90
2022-09-16T13:11:47.204Z,2.67
2022-09-16T13:13:59.005Z,3.00
2022-09-16T13:16:28.473Z,3.75
2022-09-16T13:19:09.599Z,2.83
2022-09-16T13:24:43.455Z,3.78
2022-09-16T13:27:30.951Z,3.60
2022-09-16T13:30:13.694Z,3.12
2022-09-16T13:35:35.810Z,3.92
2022-09-16T13:38:23.889Z,3.72
2022-09-16T13:40:59.061Z,3.05
2022-09-16T13:43:35.104Z,2.87
2022-09-16T13:46:08.862Z,3.65
2022-09-16T13:48:45.776Z,3.62
2022-09-16T13:51:22.426Z,4.22
2022-09-16T13:53:52.688Z,3.83
2022-09-16T13:56:54.056Z,3.50
2022-09-16T13:59:33.747Z,3.70
2022-09-16T14:02:16.850Z,3.75
2022-09-16T14:05:06.630Z,4.75
2022-09-16T14:07:57.274Z,4.18
2022-09-16T14:10:36.173Z,4.72
2022-09-16T14:13:13.814Z,3.65
2022-09-16T14:15:54.216Z,4.40
2022-09-16T14:18:25.954Z,4.25
2022-09-16T14:21:06.220Z,3.97
2022-09-16T14:23:34.737Z,4.47
2022-09-16T14:26:16.728Z,4.15
2022-09-16T14:28:44.981Z,5.30
2022-09-16T14:31:25.306Z,4.65
2022-09-16T14:33:56.693Z,4.35
2022-09-16T14:36:30.738Z,5.55
2022-09-16T14:39:09.899Z,5.15
2022-09-16T14:41:45.923Z,5.12
2022-09-16T14:44:19.630Z,5.62
2022-09-16T14:46:56.847Z,6.05
2022-09-16T14:49:32.736Z,6.78
2022-09-16T14:52:04.781Z,6.05
2022-09-16T14:54:32.682Z,4.68
2022-09-16T14:57:20.961Z,5.55
2022-09-16T14:59:50.656Z,5.87
2022-09-16T15:02:25.254Z,5.90
2022-09-16T15:05:20.133Z,5.40
2022-09-16T15:08:12.277Z,6.00
2022-09-16T15:10:51.572Z,5.30
2022-09-16T15:16:02.250Z,5.57
2022-09-16T15:18:58.243Z,5.47
2022-09-16T15:21:32.453Z,5.50
2022-09-16T15:24:03.248Z,5.45
2022-09-16T15:26:47.923Z,4.37
2022-09-16T15:29:18.532Z,5.75
2022-09-16T15:31:47.623Z,6.18
2022-09-16T15:34:18.968Z,4.68
2022-09-16T15:36:51.347Z,4.53
2022-09-16T15:39:33.420Z,4.45
2022-09-16T15:42:12.501Z,4.43
2022-09-16T15:47:39.052Z,4.62
2022-09-16T15:50:09.681Z,4.62
2022-09-16T15:53:08.935Z,5.15
2022-09-16T15:55:36.710Z,4.65
2022-09-16T15:58:24.507Z,3.83
2022-09-16T16:01:07.654Z,4.47
2022-09-16T16:03:48.098Z,5.20
2022-09-16T16:06:16.597Z,4.72
2022-09-16T16:08:52.867Z,4.22
2022-09-16T16:11:22.562Z,3.53
2022-09-16T16:13:51.433Z,3.92
2022-09-16T16:16:20.053Z,4.22
2022-09-16T16:18:48.036Z,4.70
2022-09-16T16:21:17.710Z,5.70
2022-09-16T16:23:45.455Z,5.20
2022-09-16T16:28:58.379Z,6.47
2022-09-16T16:31:26.159Z,5.50
2022-09-16T16:33:54.459Z,6.05
2022-09-16T16:36:23.006Z,4.72
2022-09-16T16:38:51.320Z,5.53
2022-09-16T16:41:23.640Z,5.53
2022-09-16T16:43:51.957Z,4.87
2022-09-16T16:46:19.983Z,5.20
2022-09-16T16:48:47.942Z,5.65
2022-09-16T16:51:16.040Z,4.80
2022-09-16T16:53:49.654Z,4.72
2022-09-16T16:56:17.880Z,4.18
2022-09-16T16:58:45.560Z,4.50
2022-09-16T17:01:16.549Z,5.68
2022-09-16T17:03:46.711Z,4.53
2022-09-16T17:06:14.870Z,4.70
2022-09-16T17:08:42.799Z,4.22
2022-09-16T17:11:16.528Z,4.35
2022-09-16T17:13:46.858Z,4.10
2022-09-16T17:16:19.205Z,3.47
2022-09-16T17:18:47.601Z,4.70
2022-09-16T17:21:21.107Z,3.42
2022-09-16T17:23:49.101Z,4.10
2022-09-16T17:26:18.455Z,4.15
2022-09-16T17:28:48.191Z,4.30
2022-09-16T17:31:20.961Z,4.20
2022-09-16T17:33:49.429Z,2.80
2022-09-16T17:36:20.027Z,3.87
2022-09-16T17:38:47.917Z,3.67
2022-09-16T17:41:17.788Z,3.87
2022-09-16T17:43:46.328Z,3.12
2022-09-16T17:46:17.596Z,4.35
2022-09-16T17:48:46.570Z,4.65
2022-09-16T17:51:14.451Z,3.65
2022-09-16T17:53:44.539Z,3.28
2022-09-16T17:56:14.577Z,4.15
2022-09-16T17:58:45.278Z,3.72
2022-09-16T18:01:18.632Z,3.37
2022-09-16T18:03:49.220Z,3.72
2022-09-16T18:09:16.626Z,3.05
2022-09-16T18:11:45.112Z,3.60
2022-09-16T18:14:20.140Z,4.18
2022-09-16T18:16:51.090Z,3.62
2022-09-16T18:19:18.867Z,4.12
2022-09-16T18:21:46.648Z,3.90
2022-09-16T18:24:15.309Z,3.83
2022-09-16T18:26:43.465Z,4.12
2022-09-16T18:29:13.538Z,3.80
2022-09-16T18:31:46.014Z,3.60
2022-09-16T18:34:15.422Z,3.50
2022-09-16T18:36:44.323Z,3.95
2022-09-16T18:39:15.334Z,3.62
2022-09-16T18:41:46.171Z,4.15
2022-09-16T18:44:20.667Z,4.35
2022-09-16T18:46:49.322Z,4.47
2022-09-16T18:49:19.034Z,4.82
2022-09-16T18:51:51.655Z,3.83
2022-09-16T18:54:26.225Z,3.10
2022-09-16T18:56:59.528Z,4.00
2022-09-16T18:59:33.125Z,3.60
2022-09-16T19:02:03.783Z,4.22
2022-09-16T19:04:37.905Z,3.12
2022-09-16T19:07:08.467Z,3.30
2022-09-16T19:09:40.369Z,3.42
2022-09-16T19:12:13.001Z,4.18
2022-09-16T19:14:42.184Z,3.90
2022-09-16T19:17:10.126Z,3.78
2022-09-16T19:19:38.118Z,3.62
2022-09-16T19:22:06.451Z,4.30
2022-09-16T19:24:34.890Z,4.87
2022-09-16T19:27:03.315Z,5.50
2022-09-16T19:29:32.862Z,4.00
2022-09-16T19:32:00.784Z,4.32
2022-09-16T19:34:29.857Z,5.07
2022-09-16T19:36:58.237Z,5.00
2022-09-16T19:39:27.332Z,4.95
2022-09-16T19:41:55.259Z,4.72
2022-09-16T19:44:23.535Z,6.62
2022-09-16T19:46:51.431Z,5.62
2022-09-16T19:49:21.449Z,6.25
2022-09-16T19:51:55.613Z,6.43
2022-09-16T19:54:24.513Z,6.72
2022-09-16T19:56:52.694Z,6.45
2022-09-16T19:59:20.771Z,6.50
2022-09-16T20:01:48.809Z,6.28
2022-09-16T20:04:20.083Z,6.85
2022-09-16T20:06:47.923Z,6.95
2022-09-16T20:12:01.535Z,7.32
2022-09-16T20:14:34.199Z,8.38
2022-09-16T20:19:32.787Z,8.02
2022-09-16T20:22:03.320Z,9.40
2022-09-16T20:24:31.497Z,7.90
2022-09-16T20:26:59.181Z,10.55
2022-09-16T20:29:29.055Z,10.15
2022-09-16T20:34:42.306Z,11.23
2022-09-16T20:37:10.312Z,11.25
2022-09-16T20:39:37.955Z,11.55
2022-09-16T20:42:05.814Z,10.10
2022-09-16T20:44:34.074Z,11.88
2022-09-16T20:47:02.452Z,16.90
2022-09-16T20:49:30.133Z,16.67
2022-09-16T20:51:58.141Z,16.30
2022-09-16T20:54:25.865Z,14.02
2022-09-16T20:56:53.607Z,14.23
2022-09-16T20:59:21.935Z,14.57
2022-09-16T21:01:50.219Z,12.82
2022-09-16T21:04:20.175Z,16.80
2022-09-16T21:06:50.799Z,26.62
2022-09-16T21:09:19.522Z,25.20
2022-09-16T21:11:47.737Z,18.00
2022-09-16T21:14:16.843Z,18.90
2022-09-16T21:16:46.022Z,18.90
2022-09-16T21:19:14.725Z,13.88
2022-09-16T21:21:44.801Z,15.88
2022-09-16T21:24:13.446Z,14.25
2022-09-16T21:26:41.750Z,16.10
2022-09-16T21:29:15.576Z,13.27
2022-09-16T21:31:44.030Z,15.25
2022-09-16T21:34:18.933Z,13.45
2022-09-16T21:36:47.143Z,14.95
2022-09-16T21:42:01.034Z,13.43
2022-09-16T21:44:29.048Z,13.70
2022-09-16T21:46:56.753Z,15.07
2022-09-16T21:49:25.929Z,14.07
2022-09-16T21:51:58.223Z,15.40
2022-09-16T21:54:26.835Z,14.57
2022-09-16T21:56:54.918Z,14.35
2022-09-16T21:59:25.934Z,15.32
2022-09-16T22:01:53.900Z,15.07
2022-09-16T22:04:23.756Z,15.20
2022-09-16T22:06:55.026Z,15.35
2022-09-16T22:09:23.716Z,14.15
2022-09-16T22:11:51.850Z,16.23
2022-09-16T22:14:19.902Z,15.00
2022-09-16T22:16:47.923Z,15.52
2022-09-16T22:19:17.916Z,12.40
2022-09-16T22:21:48.675Z,15.38
2022-09-16T22:24:20.474Z,15.32
2022-09-16T22:26:52.422Z,16.70
2022-09-16T22:29:20.887Z,16.20
2022-09-16T22:31:48.745Z,15.25
2022-09-16T22:34:16.730Z,14.87
2022-09-16T22:36:44.969Z,14.98
2022-09-16T22:39:15.199Z,15.70
2022-09-16T22:41:43.170Z,15.85
2022-09-16T22:44:11.428Z,15.60
2022-09-16T22:46:44.752Z,14.90
2022-09-16T22:49:14.069Z,14.43
2022-09-16T22:54:27.807Z,11.88
2022-09-16T22:56:55.472Z,14.27
2022-09-16T22:59:23.649Z,13.80
2022-09-16T23:01:51.691Z,14.43
2022-09-16T23:04:19.566Z,13.93
2022-09-16T23:06:47.581Z,13.98
2022-09-16T23:09:15.776Z,13.88
2022-09-16T23:11:43.902Z,14.55
2022-09-16T23:14:15.289Z,16.62
2022-09-16T23:16:43.451Z,15.25
2022-09-16T23:19:12.304Z,14.50
2022-09-16T23:21:43.938Z,15.25
2022-09-16T23:24:21.108Z,15.27
2022-09-16T23:26:49.499Z,13.85
2022-09-16T23:29:18.629Z,12.70
2022-09-16T23:31:46.806Z,13.93
2022-09-16T23:37:05.244Z,14.23
2022-09-16T23:42:18.595Z,12.35
2022-09-16T23:44:46.210Z,13.10
2022-09-16T23:47:13.911Z,15.35
2022-09-16T23:49:42.035Z,14.15
2022-09-16T23:52:10.042Z,14.45
2022-09-16T23:54:37.919Z,14.82
2022-09-16T23:57:06.592Z,13.75
2022-09-16T23:59:34.215Z,14.77
